< < Back
Terminal Aerodrome Forecast


Current Version              Previous Versions:   1  2  3  4  5  6  7  8  9  

Terminal Aerodrome Forecast

832
FTUS44 KMRX 241724
TAFCHA
TAF
KCHA 241724Z 2418/2518 33008KT P6SM VCSH BKN025
     FM250000 34005KT P6SM SCT050
     FM250800 00000KT 4SM BR BKN250
     FM251300 35004KT P6SM SCT250=



Latest METAR

643
SAUS80 KWBC 251300 RRB
MTRCHA
METAR KCHA 251253Z 04004KT 10SM FEW031 SCT250 22/17 A3009 RMK AO2 SLP181
T02170172


USA.gov is the U.S. government's official web portal to all federal, state and local government web resources and services.